Time;durP1;ratioP1;P1;durP2;ratioP2;P2;SDS_P1;SDS_P2;PMS_P1;PMS_P2;Temp;Humidity;BMP_temperature;BMP_pressure;BME280_temperature;BME280_humidity;BME280_pressure;Samples;Min_cycle;Max_cycle;Signal;HPM_P1;HPM_P2
2022/07/06 00:00:06;;;;;;;4.90;3.17;;;12.60;99.90;;;;;;4896952;29;20036;-65
2022/07/06 00:02:32;;;;;;;5.70;3.33;;;12.60;99.90;;;;;;4907840;29;20051;-65
2022/07/06 00:04:57;;;;;;;4.95;3.22;;;12.60;99.90;;;;;;4897254;29;20040;-65
2022/07/06 00:07:23;;;;;;;7.07;3.42;;;12.60;99.90;;;;;;4899431;29;20092;-65
2022/07/06 00:09:49;;;;;;;6.53;3.60;;;12.60;99.90;;;;;;4901608;29;20040;-65
2022/07/06 00:12:15;;;;;;;6.22;3.78;;;12.70;99.90;;;;;;4898072;29;20044;-65
2022/07/06 00:14:41;;;;;;;7.50;3.78;;;12.60;99.90;;;;;;4898500;29;20089;-65
2022/07/06 00:17:07;;;;;;;8.70;3.70;;;12.60;99.90;;;;;;4898057;29;20569;-65
2022/07/06 00:19:33;;;;;;;9.57;3.80;;;12.70;99.90;;;;;;4897893;29;20047;-65
2022/07/06 00:21:58;;;;;;;5.57;3.30;;;12.70;99.90;;;;;;4897993;29;20048;-65
2022/07/06 00:24:24;;;;;;;9.50;3.30;;;12.70;99.90;;;;;;4897800;29;20046;-65
2022/07/06 00:26:50;;;;;;;5.80;3.10;;;12.70;99.90;;;;;;4897704;29;20044;-65
2022/07/06 00:29:16;;;;;;;7.40;3.25;;;12.80;99.90;;;;;;4896622;29;20058;-65
2022/07/06 00:31:41;;;;;;;4.95;2.90;;;12.90;99.90;;;;;;4897687;29;20044;-65
2022/07/06 00:34:07;;;;;;;6.72;2.78;;;12.90;99.90;;;;;;4907723;29;20532;-65
2022/07/06 00:36:33;;;;;;;6.38;3.00;;;13.00;99.90;;;;;;4905948;29;20153;-65
2022/07/06 00:38:58;;;;;;;9.38;2.85;;;13.10;99.90;;;;;;4897932;29;20557;-65
2022/07/06 00:41:24;;;;;;;7.97;3.13;;;13.20;99.90;;;;;;4895941;29;20058;-65
2022/07/06 00:43:57;;;;;;;5.05;2.72;;;13.20;99.90;;;;;;4910867;29;20043;-66
2022/07/06 00:46:31;;;;;;;7.43;2.90;;;13.30;99.90;;;;;;4896965;29;20052;-65
2022/07/06 00:48:57;;;;;;;7.65;2.90;;;13.30;99.90;;;;;;4896697;29;20051;-65
2022/07/06 00:51:30;;;;;;;6.00;3.05;;;13.40;99.90;;;;;;4896740;29;20044;-65
2022/07/06 00:53:59;;;;;;;5.32;2.78;;;13.40;99.90;;;;;;4897487;29;20051;-65
2022/07/06 00:56:28;;;;;;;6.63;2.80;;;13.40;99.90;;;;;;4897546;29;20041;-65
2022/07/06 00:58:54;;;;;;;8.20;3.28;;;13.40;99.90;;;;;;4888294;29;20048;-65
2022/07/06 01:01:19;;;;;;;5.93;2.90;;;13.40;99.90;;;;;;4909650;29;20044;-65
2022/07/06 01:03:45;;;;;;;7.28;2.90;;;13.40;99.90;;;;;;4897603;29;20079;-65
2022/07/06 01:06:11;;;;;;;7.15;2.78;;;13.50;99.90;;;;;;4892904;29;20047;-65
2022/07/06 01:08:38;;;;;;;9.88;3.00;;;13.50;99.90;;;;;;4896817;29;20048;-65
2022/07/06 01:11:03;;;;;;;5.55;2.72;;;13.50;99.90;;;;;;4896585;29;20465;-65
2022/07/06 01:13:32;;;;;;;6.03;2.90;;;13.50;99.90;;;;;;4897595;29;20139;-65
2022/07/06 01:15:58;;;;;;;5.78;2.97;;;13.50;99.90;;;;;;4900853;29;20040;-65
2022/07/06 01:18:24;;;;;;;6.22;2.97;;;13.50;99.90;;;;;;4896982;29;20051;-65
2022/07/06 01:20:50;;;;;;;4.50;2.67;;;13.60;99.90;;;;;;4896956;29;20557;-65
2022/07/06 01:23:16;;;;;;;6.38;2.85;;;13.50;99.90;;;;;;4897686;29;20041;-65
2022/07/06 01:25:41;;;;;;;5.15;2.90;;;13.60;99.90;;;;;;4900213;29;20032;-65
2022/07/06 01:28:07;;;;;;;6.63;3.10;;;13.60;99.90;;;;;;4901119;29;20793;-65
2022/07/06 01:30:33;;;;;;;6.30;3.08;;;13.50;99.90;;;;;;4896432;29;20092;-65
2022/07/06 01:32:58;;;;;;;9.10;2.70;;;13.50;99.90;;;;;;4904535;29;20040;-65
2022/07/06 01:35:26;;;;;;;6.47;3.08;;;13.50;99.90;;;;;;4904385;29;20115;-65
2022/07/06 01:37:52;;;;;;;5.40;2.47;;;13.60;99.90;;;;;;4911042;29;20419;-65
2022/07/06 01:40:17;;;;;;;6.22;2.78;;;13.60;99.90;;;;;;4902097;29;20037;-65
2022/07/06 01:42:43;;;;;;;5.90;3.20;;;13.50;99.90;;;;;;4896380;29;20143;-65
2022/07/06 01:45:09;;;;;;;7.93;3.00;;;13.60;99.90;;;;;;4896848;29;20036;-65
2022/07/06 01:47:35;;;;;;;6.05;2.90;;;13.60;99.90;;;;;;4897016;29;20048;-65
2022/07/06 01:50:03;;;;;;;5.95;2.97;;;13.60;99.90;;;;;;4896038;29;20123;-65
2022/07/06 01:52:29;;;;;;;5.68;3.10;;;13.60;99.90;;;;;;4895639;29;20040;-65
2022/07/06 01:54:58;;;;;;;6.35;2.80;;;13.60;99.90;;;;;;4896639;29;20426;-65
2022/07/06 01:57:23;;;;;;;4.63;2.78;;;13.50;99.90;;;;;;4896800;29;20483;-65
2022/07/06 01:59:49;;;;;;;7.60;3.03;;;13.50;99.90;;;;;;4896023;29;20123;-65
2022/07/06 02:02:15;;;;;;;6.18;2.80;;;13.60;99.90;;;;;;4923097;29;20515;-65
2022/07/06 02:15:02;;;;;;;7.20;2.95;;;13.40;99.90;;;;;;5476163;23;20053;-65
2022/07/06 02:17:28;;;;;;;10.32;3.28;;;13.40;99.90;;;;;;4913856;29;20402;-66
2022/07/06 02:19:53;;;;;;;8.57;3.63;;;13.40;99.90;;;;;;4916075;29;20094;-66
2022/07/06 02:22:19;;;;;;;5.00;3.38;;;13.40;99.90;;;;;;4908828;29;20044;-66
2022/07/06 02:24:45;;;;;;;6.45;3.10;;;13.40;99.90;;;;;;4906618;29;20687;-66
2022/07/06 02:27:10;;;;;;;7.22;3.90;;;13.40;99.90;;;;;;4914820;29;20077;-66
2022/07/06 02:29:36;;;;;;;8.25;3.00;;;13.40;99.90;;;;;;4907231;29;20108;-66
2022/07/06 02:32:01;;;;;;;4.93;3.03;;;13.40;99.90;;;;;;4904888;29;20044;-66
2022/07/06 02:34:27;;;;;;;5.05;3.17;;;13.40;99.90;;;;;;4914526;29;20071;-66
2022/07/06 02:36:53;;;;;;;6.00;3.13;;;13.30;99.90;;;;;;4914879;29;20036;-66
2022/07/06 02:39:18;;;;;;;6.00;3.17;;;13.30;99.90;;;;;;4893311;29;20498;-66
2022/07/06 02:41:44;;;;;;;7.05;3.25;;;13.20;99.90;;;;;;4901905;29;20043;-66
2022/07/06 02:44:09;;;;;;;5.88;3.25;;;13.20;99.90;;;;;;4914345;29;20194;-66
2022/07/06 02:46:35;;;;;;;5.05;3.42;;;13.20;99.90;;;;;;4897568;29;20088;-66
2022/07/06 02:49:00;;;;;;;4.93;3.22;;;13.20;99.90;;;;;;4886807;29;20047;-66
2022/07/06 02:51:26;;;;;;;7.85;3.63;;;13.20;99.90;;;;;;4909886;29;20071;-66
2022/07/06 02:53:52;;;;;;;4.63;3.40;;;13.20;99.90;;;;;;4915666;29;20044;-66
2022/07/06 02:56:17;;;;;;;8.40;3.50;;;13.10;99.90;;;;;;4901889;29;20077;-66
2022/07/06 02:58:43;;;;;;;6.55;3.30;;;13.10;99.90;;;;;;4903123;29;20032;-66
2022/07/06 03:01:08;;;;;;;5.80;3.42;;;13.00;99.90;;;;;;4908648;29;20044;-66
2022/07/06 03:03:34;;;;;;;11.10;3.92;;;13.00;99.90;;;;;;4890122;29;20064;-66
2022/07/06 03:06:00;;;;;;;6.70;3.40;;;13.00;99.90;;;;;;4890678;29;20036;-66
2022/07/06 03:08:25;;;;;;;4.63;3.30;;;13.00;99.90;;;;;;4891810;29;20037;-65
2022/07/06 03:10:51;;;;;;;6.70;3.30;;;13.00;99.90;;;;;;4884966;29;20378;-65
2022/07/06 03:13:16;;;;;;;5.93;3.13;;;13.00;99.90;;;;;;4888947;29;20045;-65
2022/07/06 03:15:42;;;;;;;4.93;3.40;;;13.00;99.90;;;;;;4907834;29;20032;-64
2022/07/06 03:18:07;;;;;;;7.18;3.55;;;13.10;99.90;;;;;;4883061;29;20509;-64
2022/07/06 03:20:33;;;;;;;4.07;2.90;;;13.00;99.90;;;;;;4890971;29;20036;-64
2022/07/06 03:22:59;;;;;;;8.07;3.30;;;13.10;99.90;;;;;;4896783;29;20079;-64
2022/07/06 03:25:24;;;;;;;6.00;3.38;;;13.00;99.90;;;;;;4916006;29;20044;-64
2022/07/06 03:27:50;;;;;;;6.20;3.50;;;13.00;99.90;;;;;;4902652;29;20040;-64
2022/07/06 03:30:16;;;;;;;5.05;3.50;;;13.00;99.90;;;;;;4886906;29;20040;-64
2022/07/06 03:32:41;;;;;;;5.93;3.40;;;13.00;99.90;;;;;;4916675;29;20047;-64
2022/07/06 03:35:08;;;;;;;5.32;3.28;;;13.10;99.90;;;;;;4918596;29;20068;-64
2022/07/06 03:37:33;;;;;;;4.60;3.00;;;13.10;99.90;;;;;;4898231;29;20045;-64
2022/07/06 03:39:59;;;;;;;7.10;3.50;;;13.10;99.90;;;;;;4914332;29;20040;-64
2022/07/06 03:42:24;;;;;;;5.68;3.53;;;13.10;99.90;;;;;;4895180;29;20032;-64
2022/07/06 03:44:50;;;;;;;8.32;3.25;;;13.10;99.90;;;;;;4899743;29;20560;-64
2022/07/06 03:47:16;;;;;;;5.93;3.15;;;13.20;99.90;;;;;;4896794;29;20047;-64
2022/07/06 03:49:41;;;;;;;5.97;3.75;;;13.20;99.90;;;;;;4880242;29;20040;-64
2022/07/06 03:52:07;;;;;;;7.35;3.70;;;13.20;99.90;;;;;;4894920;29;20044;-64
2022/07/06 03:54:32;;;;;;;7.63;3.55;;;13.20;99.90;;;;;;4898702;29;20037;-64
2022/07/06 03:56:58;;;;;;;6.25;3.50;;;13.30;99.90;;;;;;4912234;29;20040;-64
2022/07/06 03:59:24;;;;;;;8.73;3.53;;;13.20;99.90;;;;;;4908637;29;20045;-64
2022/07/06 04:01:49;;;;;;;9.73;3.67;;;13.30;99.90;;;;;;4894963;29;20036;-64
2022/07/06 04:04:15;;;;;;;6.97;3.42;;;13.30;99.90;;;;;;4913792;29;20036;-64
2022/07/06 04:06:40;;;;;;;5.53;3.50;;;13.30;99.90;;;;;;4918145;29;20051;-64
2022/07/06 04:09:06;;;;;;;5.78;3.70;;;13.30;99.90;;;;;;4904135;29;20424;-64
2022/07/06 04:11:32;;;;;;;5.35;3.60;;;13.30;99.90;;;;;;4901689;29;20508;-64
2022/07/06 04:13:57;;;;;;;4.60;3.42;;;13.30;99.90;;;;;;4917253;29;20043;-64
2022/07/06 04:16:23;;;;;;;8.05;3.55;;;13.30;99.90;;;;;;4908183;29;20109;-64
2022/07/06 04:18:49;;;;;;;7.13;3.55;;;13.40;99.90;;;;;;4900950;29;20075;-64
2022/07/06 04:21:14;;;;;;;5.45;3.58;;;13.40;99.90;;;;;;4906482;29;20147;-64
2022/07/06 04:23:40;;;;;;;6.43;3.85;;;13.40;99.90;;;;;;4894709;29;20128;-65
2022/07/06 04:26:06;;;;;;;5.90;3.80;;;13.40;99.90;;;;;;4878376;29;20379;-65
2022/07/06 04:28:31;;;;;;;8.38;3.85;;;13.40;99.90;;;;;;4901631;29;20036;-65
2022/07/06 04:30:57;;;;;;;11.45;3.92;;;13.40;99.90;;;;;;4913093;29;20047;-65
2022/07/06 04:33:23;;;;;;;5.40;3.67;;;13.40;99.90;;;;;;4907471;29;20040;-65
2022/07/06 04:35:48;;;;;;;5.63;3.33;;;13.40;99.90;;;;;;4885268;29;20036;-65
2022/07/06 04:38:14;;;;;;;8.07;3.40;;;13.50;99.90;;;;;;4901501;29;20047;-64
2022/07/06 04:40:40;;;;;;;6.18;3.70;;;13.60;99.90;;;;;;4904119;29;20047;-65
2022/07/06 04:43:05;;;;;;;9.13;3.90;;;13.60;99.90;;;;;;4892695;29;20458;-65
2022/07/06 04:45:31;;;;;;;8.10;3.63;;;13.70;99.90;;;;;;4896770;29;20132;-65
2022/07/06 04:47:57;;;;;;;8.40;3.30;;;13.70;99.90;;;;;;4913980;29;20081;-65
2022/07/06 04:50:23;;;;;;;6.72;3.30;;;13.80;99.90;;;;;;4892605;29;20127;-65
2022/07/06 04:52:49;;;;;;;6.60;3.40;;;13.90;99.90;;;;;;4905148;29;20076;-65
2022/07/06 04:55:14;;;;;;;4.20;3.20;;;14.00;99.90;;;;;;4902827;29;20036;-65
2022/07/06 04:57:40;;;;;;;5.63;3.40;;;14.10;99.90;;;;;;4875144;29;20052;-65
2022/07/06 05:00:07;;;;;;;5.65;3.22;;;14.10;99.90;;;;;;4885353;29;20037;-65
2022/07/06 05:02:33;;;;;;;9.07;3.45;;;14.20;99.90;;;;;;4895770;29;20037;-65
2022/07/06 05:04:59;;;;;;;10.57;3.22;;;14.20;99.90;;;;;;4914169;29;20091;-65
2022/07/06 05:07:28;;;;;;;7.07;2.97;;;14.30;99.90;;;;;;4914401;29;20106;-65
2022/07/06 05:09:54;;;;;;;4.63;2.70;;;14.30;99.90;;;;;;4892594;29;20047;-65
2022/07/06 05:12:20;;;;;;;6.65;3.22;;;14.40;99.90;;;;;;4909199;29;20036;-65
2022/07/06 05:14:45;;;;;;;6.28;2.60;;;14.50;99.90;;;;;;4895616;29;20472;-65
2022/07/06 05:17:11;;;;;;;5.43;2.53;;;14.50;99.90;;;;;;4885278;29;20041;-65
2022/07/06 05:19:37;;;;;;;4.20;2.45;;;14.50;99.90;;;;;;4894927;29;20057;-65
2022/07/06 05:22:03;;;;;;;7.28;2.53;;;14.50;99.90;;;;;;4887260;29;20509;-65
2022/07/06 05:24:28;;;;;;;7.00;3.03;;;14.50;99.90;;;;;;4909422;29;20047;-64
2022/07/06 05:26:54;;;;;;;9.77;2.55;;;14.40;99.90;;;;;;4888778;29;20124;-64
2022/07/06 05:29:20;;;;;;;7.03;2.50;;;14.40;99.90;;;;;;4896726;29;20131;-65
2022/07/06 05:31:45;;;;;;;6.35;2.95;;;14.50;99.90;;;;;;4896519;29;20040;-65
2022/07/06 05:34:11;;;;;;;5.10;2.47;;;14.50;99.90;;;;;;4887913;29;20040;-65
2022/07/06 05:36:37;;;;;;;3.80;2.50;;;14.50;99.90;;;;;;4907785;29;20085;-65
2022/07/06 05:39:02;;;;;;;4.97;2.55;;;14.60;99.90;;;;;;4915834;29;20352;-65
2022/07/06 05:41:28;;;;;;;7.43;2.10;;;14.70;99.90;;;;;;4897682;29;20061;-65
2022/07/06 05:43:54;;;;;;;6.28;2.30;;;14.80;99.90;;;;;;4903344;29;20038;-64
2022/07/06 05:46:19;;;;;;;7.40;2.20;;;14.90;99.90;;;;;;4915010;29;20036;-64
2022/07/06 05:51:29;;;;;;;6.25;1.92;;;15.20;99.90;;;;;;4889797;29;20064;-65
2022/07/06 05:53:55;;;;;;;9.00;1.95;;;15.20;99.90;;;;;;4912489;29;20111;-64
2022/07/06 05:56:20;;;;;;;6.55;1.85;;;15.30;99.90;;;;;;4911535;29;20055;-64
2022/07/06 05:58:46;;;;;;;3.67;1.55;;;15.40;99.90;;;;;;4897059;29;20052;-64
2022/07/06 06:01:11;;;;;;;3.00;1.13;;;15.40;99.90;;;;;;4892428;29;20072;-64
2022/07/06 06:03:37;;;;;;;2.92;1.27;;;15.50;99.90;;;;;;4911864;29;20094;-65
2022/07/06 06:06:03;;;;;;;5.93;1.50;;;15.40;99.90;;;;;;4905707;29;20037;-65
2022/07/06 06:08:28;;;;;;;4.20;1.42;;;15.40;99.90;;;;;;4893522;29;20124;-64
2022/07/06 06:10:54;;;;;;;3.45;1.55;;;15.40;99.90;;;;;;4900826;29;20037;-64
2022/07/06 06:13:20;;;;;;;6.07;1.65;;;15.30;99.90;;;;;;4889821;29;20514;-65
2022/07/06 06:15:45;;;;;;;6.43;1.33;;;15.30;99.90;;;;;;4894321;29;20508;-65
2022/07/06 06:18:11;;;;;;;9.35;1.80;;;15.50;99.90;;;;;;4913507;29;20047;-65
2022/07/06 06:20:37;;;;;;;5.95;1.20;;;15.60;99.90;;;;;;4915757;29;20069;-65
2022/07/06 06:23:04;;;;;;;2.60;1.30;;;15.80;99.90;;;;;;4902867;29;20033;-65
2022/07/06 06:25:35;;;;;;;4.55;1.30;;;16.00;99.90;;;;;;4883926;29;20068;-66
2022/07/06 06:28:05;;;;;;;;;;;16.10;99.90;;;;;;4915527;29;20497;-66
2022/07/06 06:30:30;;;;;;;5.75;1.38;;;16.10;99.90;;;;;;4915780;29;20318;-66
2022/07/06 06:33:17;;;;;;;6.28;1.00;;;16.10;99.90;;;;;;4894430;29;20040;-66
2022/07/06 06:35:46;;;;;;;4.43;1.15;;;16.20;99.90;;;;;;4914632;29;20032;-66
2022/07/06 06:38:13;;;;;;;3.85;1.30;;;16.10;99.90;;;;;;4915771;29;20040;-64
2022/07/06 06:40:39;;;;;;;4.22;1.20;;;16.10;99.90;;;;;;4893086;29;20833;-64
2022/07/06 06:43:05;;;;;;;5.90;1.30;;;16.30;99.90;;;;;;4912338;29;20436;-65
2022/07/06 06:45:30;;;;;;;3.58;1.20;;;16.30;99.90;;;;;;4915198;29;20040;-65
2022/07/06 06:47:56;;;;;;;5.80;1.55;;;16.30;99.90;;;;;;4915721;29;20075;-65
2022/07/06 06:50:25;;;;;;;2.88;1.10;;;16.40;99.90;;;;;;4890448;29;20044;-65
2022/07/06 06:52:51;;;;;;;3.90;1.10;;;16.40;99.90;;;;;;4908934;29;20044;-65
2022/07/06 06:55:17;;;;;;;6.63;1.40;;;16.40;99.90;;;;;;4915234;29;20044;-65
2022/07/06 06:57:44;;;;;;;4.57;0.93;;;16.40;99.90;;;;;;4900484;29;20547;-65
2022/07/06 07:00:12;;;;;;;4.45;1.27;;;16.40;99.90;;;;;;4907282;29;20048;-65
2022/07/06 07:02:38;;;;;;;3.92;1.00;;;16.50;99.90;;;;;;4897952;29;20063;-65
2022/07/06 07:05:05;;;;;;;3.42;1.02;;;16.50;99.90;;;;;;4891207;29;20052;-65
2022/07/06 07:07:30;;;;;;;5.13;1.10;;;16.60;99.90;;;;;;4899308;29;20109;-65
2022/07/06 07:09:56;;;;;;;3.47;1.00;;;16.70;99.90;;;;;;4915247;29;20043;-65
2022/07/06 07:12:22;;;;;;;3.03;1.00;;;16.70;99.90;;;;;;4914407;29;20527;-65
2022/07/06 07:14:48;;;;;;;5.10;1.20;;;16.80;99.90;;;;;;4890156;29;20123;-65
2022/07/06 07:17:14;;;;;;;4.15;1.10;;;16.90;99.90;;;;;;4910139;29;20119;-65
2022/07/06 07:19:40;;;;;;;2.25;0.90;;;17.00;99.90;;;;;;4884252;29;20048;-65
2022/07/06 07:22:06;;;;;;;3.47;1.30;;;17.10;99.90;;;;;;4874941;29;20073;-65
2022/07/06 07:24:32;;;;;;;3.95;0.88;;;17.00;99.90;;;;;;4896021;29;20069;-65
2022/07/06 07:26:57;;;;;;;5.20;1.25;;;17.00;99.90;;;;;;4915154;29;20043;-65
2022/07/06 07:29:23;;;;;;;3.33;1.05;;;17.10;99.90;;;;;;4909085;29;20059;-65
2022/07/06 07:31:48;;;;;;;4.68;1.30;;;17.10;99.90;;;;;;4903683;29;20100;-65
2022/07/06 07:34:14;;;;;;;6.15;1.00;;;17.20;99.90;;;;;;4914450;29;20640;-65
2022/07/06 07:36:40;;;;;;;3.20;1.00;;;17.20;99.90;;;;;;4914835;29;20086;-65
2022/07/06 07:39:05;;;;;;;4.22;1.25;;;17.00;99.90;;;;;;4912236;29;20060;-65
2022/07/06 07:41:31;;;;;;;5.35;1.10;;;16.90;99.90;;;;;;4897554;29;20055;-65
2022/07/06 07:43:57;;;;;;;3.60;1.23;;;16.80;99.90;;;;;;4914716;29;20509;-65
2022/07/06 07:46:23;;;;;;;3.60;1.30;;;16.70;99.90;;;;;;4902512;29;20497;-65
2022/07/06 07:48:48;;;;;;;2.45;1.00;;;16.60;99.90;;;;;;4894378;29;20037;-65
2022/07/06 07:51:14;;;;;;;3.05;1.08;;;16.70;99.90;;;;;;4899421;29;20042;-65
2022/07/06 07:53:40;;;;;;;3.00;1.00;;;16.70;99.90;;;;;;4891667;29;20044;-65
2022/07/06 07:56:05;;;;;;;3.97;1.10;;;16.80;99.90;;;;;;4907440;29;20048;-66
2022/07/06 07:58:31;;;;;;;4.05;1.17;;;16.90;99.90;;;;;;4901790;29;20037;-65
2022/07/06 08:00:57;;;;;;;5.72;1.35;;;16.90;99.90;;;;;;4909856;29;20528;-65
2022/07/06 08:03:22;;;;;;;4.53;1.10;;;17.00;99.90;;;;;;4885054;29;20041;-65
2022/07/06 08:05:48;;;;;;;4.57;1.10;;;17.10;99.90;;;;;;4893850;29;20031;-66
2022/07/06 08:08:15;;;;;;;3.80;1.35;;;17.20;99.90;;;;;;4917170;29;20078;-66
2022/07/06 08:10:41;;;;;;;4.10;1.05;;;17.20;99.90;;;;;;4896052;29;20474;-65
2022/07/06 08:13:10;;;;;;;2.08;0.82;;;17.30;99.90;;;;;;4888963;29;20043;-65
2022/07/06 08:15:37;;;;;;;2.90;1.23;;;17.50;99.90;;;;;;5059322;23;20116;-65
2022/07/06 08:18:03;;;;;;;3.72;1.02;;;17.60;99.90;;;;;;4884369;29;20128;-65
2022/07/06 09:04:33;;;;;;;2.78;0.80;;;18.20;99.90;;;;;;5681215;23;21018;-67
2022/07/06 09:06:58;;;;;;;2.13;0.80;;;18.30;99.90;;;;;;4896124;29;20052;-67
2022/07/06 10:05:50;;;;;;;3.30;0.70;;;20.00;99.40;;;;;;6005543;23;20027;-67
2022/07/06 10:08:16;;;;;;;2.17;0.50;;;20.20;98.70;;;;;;4894235;29;20063;-66
2022/07/06 10:10:43;;;;;;;3.47;0.95;;;20.30;97.80;;;;;;4885445;29;20072;-67
2022/07/06 10:27:14;;;;;;;1.85;0.65;;;19.90;97.10;;;;;;4951569;23;20064;-67
2022/07/06 10:29:40;;;;;;;1.10;0.60;;;19.80;97.00;;;;;;4923566;23;20044;-64
2022/07/06 10:32:06;;;;;;;2.28;0.60;;;19.80;97.20;;;;;;4906750;29;20041;-64
2022/07/06 10:34:34;;;;;;;2.58;0.77;;;19.70;97.50;;;;;;4892503;29;20040;-64
2022/07/06 10:37:01;;;;;;;2.50;0.70;;;19.60;96.40;;;;;;4900056;29;20436;-64
2022/07/06 10:42:42;;;;;;;3.22;0.70;;;20.10;96.30;;;;;;4909496;23;20052;-64
2022/07/06 10:45:10;;;;;;;4.47;0.63;;;20.50;95.70;;;;;;4887349;29;20045;-64
2022/07/06 10:47:35;;;;;;;1.13;0.60;;;20.40;96.60;;;;;;4878265;29;20416;-64
2022/07/06 10:50:02;;;;;;;1.92;0.60;;;20.20;96.40;;;;;;4885384;29;20048;-64
2022/07/06 10:52:58;;;;;;;3.92;0.55;;;20.40;96.10;;;;;;4881982;29;20045;-64
2022/07/06 10:55:31;;;;;;;3.20;0.90;;;20.50;94.50;;;;;;4861968;29;20053;-64
2022/07/06 10:57:57;;;;;;;3.45;0.88;;;20.50;94.70;;;;;;4877361;29;20041;-64
2022/07/06 11:00:22;;;;;;;2.58;0.77;;;20.60;95.00;;;;;;4867351;29;20312;-64
2022/07/06 11:02:48;;;;;;;3.15;0.73;;;20.50;94.70;;;;;;4873342;29;20037;-64
2022/07/06 11:05:40;;;;;;;3.33;0.65;;;20.60;94.80;;;;;;4874006;29;20052;-64
2022/07/06 11:08:09;;;;;;;4.43;0.68;;;20.60;95.00;;;;;;4866769;29;20132;-63
2022/07/06 11:10:48;;;;;;;3.30;1.00;;;20.30;93.50;;;;;;4872031;29;20573;-64
2022/07/06 11:13:29;;;;;;;2.17;0.70;;;20.10;94.20;;;;;;4873814;29;20049;-64
2022/07/06 11:16:04;;;;;;;2.60;0.85;;;19.90;95.50;;;;;;4863917;29;20053;-63
2022/07/06 11:18:45;;;;;;;3.35;0.95;;;20.10;95.90;;;;;;4864799;29;20469;-63
2022/07/06 11:21:31;;;;;;;2.30;0.90;;;20.10;95.50;;;;;;4873571;29;20148;-64
2022/07/06 11:23:57;;;;;;;3.58;1.10;;;20.10;95.60;;;;;;4864212;29;20125;-64
2022/07/06 11:26:23;;;;;;;2.60;1.08;;;20.10;96.50;;;;;;4870095;29;20598;-64
2022/07/06 11:28:51;;;;;;;2.13;0.70;;;19.90;95.70;;;;;;4873936;29;20112;-64
2022/07/06 11:31:16;;;;;;;2.80;0.73;;;20.20;95.10;;;;;;4873689;29;20052;-64
2022/07/06 11:33:45;;;;;;;1.90;0.82;;;20.40;94.70;;;;;;4860280;29;20032;-64
2022/07/06 11:36:16;;;;;;;3.30;0.70;;;20.70;93.20;;;;;;4858584;29;20078;-64
2022/07/06 11:38:42;;;;;;;3.95;1.05;;;20.90;93.40;;;;;;4873337;29;20048;-64
2022/07/06 11:41:08;;;;;;;2.40;0.80;;;20.90;93.10;;;;;;4869543;29;20390;-64
2022/07/06 11:43:34;;;;;;;2.65;0.80;;;20.70;93.80;;;;;;4876647;29;20053;-64
2022/07/06 11:46:00;;;;;;;2.22;0.70;;;20.50;94.50;;;;;;4877331;29;20118;-64
2022/07/06 11:48:25;;;;;;;2.00;0.77;;;20.30;94.90;;;;;;4873154;29;20084;-64
2022/07/06 11:50:59;;;;;;;3.25;0.85;;;20.30;95.70;;;;;;4873477;29;20029;-64
2022/07/06 11:53:25;;;;;;;3.22;0.90;;;20.20;95.50;;;;;;4876509;29;20409;-64
2022/07/06 11:55:51;;;;;;;5.28;1.02;;;20.20;94.50;;;;;;4873013;29;20052;-64
2022/07/06 11:58:22;;;;;;;3.05;0.90;;;20.30;94.90;;;;;;4867186;29;20045;-64
2022/07/06 12:01:04;;;;;;;2.47;0.85;;;20.30;94.40;;;;;;4876746;29;20469;-63
2022/07/06 12:03:29;;;;;;;4.13;0.80;;;20.50;94.90;;;;;;4874253;29;20105;-64
2022/07/06 12:05:55;;;;;;;2.58;1.10;;;20.50;95.40;;;;;;4874278;29;20045;-64
2022/07/06 12:08:21;;;;;;;1.65;0.70;;;20.50;95.00;;;;;;4859926;29;20522;-64
2022/07/06 12:10:46;;;;;;;3.10;0.98;;;20.70;95.80;;;;;;4876587;29;20045;-64
2022/07/06 12:13:12;;;;;;;2.92;1.00;;;20.80;95.30;;;;;;4864880;29;20117;-64
2022/07/06 12:15:38;;;;;;;4.10;1.05;;;20.70;95.60;;;;;;4869599;29;20077;-64
2022/07/06 12:18:03;;;;;;;2.03;0.80;;;20.60;95.60;;;;;;4876371;29;20052;-64
2022/07/06 12:20:29;;;;;;;3.22;1.02;;;20.70;95.80;;;;;;4877708;29;20494;-64
2022/07/06 12:23:02;;;;;;;2.83;0.82;;;21.20;95.60;;;;;;4878338;29;20526;-64
2022/07/06 12:25:35;;;;;;;4.00;1.08;;;21.40;94.90;;;;;;4876421;29;20093;-64
2022/07/06 12:28:01;;;;;;;2.58;1.00;;;21.20;94.40;;;;;;4872306;29;20117;-64
2022/07/06 12:30:27;;;;;;;3.40;1.00;;;21.10;94.80;;;;;;4865402;29;20049;-64
2022/07/06 12:33:15;;;;;;;2.78;0.90;;;20.80;95.40;;;;;;4874866;29;20040;-64
2022/07/06 12:35:42;;;;;;;2.85;0.90;;;20.80;95.30;;;;;;4876627;29;20077;-64
2022/07/06 12:38:08;;;;;;;2.55;1.00;;;21.20;95.20;;;;;;4876467;29;20037;-64
2022/07/06 12:40:36;;;;;;;3.58;0.93;;;21.30;95.00;;;;;;4869007;29;20765;-64
2022/07/06 12:43:03;;;;;;;5.07;1.27;;;21.00;94.90;;;;;;4870928;29;20048;-64
2022/07/06 12:45:30;;;;;;;3.85;0.98;;;20.70;94.60;;;;;;4867252;29;20106;-64
2022/07/06 12:48:05;;;;;;;2.10;1.05;;;20.70;94.70;;;;;;4864577;29;20048;-64
2022/07/06 12:50:36;;;;;;;1.15;0.80;;;20.60;94.10;;;;;;4873587;29;20489;-64
2022/07/06 12:53:04;;;;;;;2.05;1.17;;;20.50;95.30;;;;;;4874761;29;20048;-65
2022/07/06 12:55:30;;;;;;;2.10;0.88;;;20.80;94.80;;;;;;4876023;29;20053;-64
2022/07/06 12:57:57;;;;;;;3.85;1.20;;;21.10;94.60;;;;;;4859601;29;20112;-65
2022/07/06 13:00:23;;;;;;;2.78;1.23;;;21.10;95.00;;;;;;4878255;29;20052;-65
2022/07/06 13:02:55;;;;;;;2.55;1.10;;;21.30;94.60;;;;;;4872144;29;20536;-65
2022/07/06 13:05:28;;;;;;;3.47;1.23;;;21.10;93.50;;;;;;4865879;29;20080;-65
2022/07/06 13:07:56;;;;;;;6.75;0.90;;;20.90;93.40;;;;;;4875467;29;20052;-65
2022/07/06 13:10:23;;;;;;;2.95;1.00;;;20.70;94.10;;;;;;4878256;29;20100;-64
2022/07/06 13:12:50;;;;;;;1.60;0.88;;;20.80;93.90;;;;;;4874129;29;20041;-65
2022/07/06 13:15:15;;;;;;;1.50;1.10;;;20.90;94.40;;;;;;4873879;29;20049;-64
2022/07/06 13:17:43;;;;;;;4.45;1.02;;;21.20;94.10;;;;;;4869257;29;20034;-64
2022/07/06 13:20:11;;;;;;;2.58;1.00;;;21.50;93.30;;;;;;4869030;29;20077;-65
2022/07/06 13:22:37;;;;;;;4.55;1.25;;;21.80;93.00;;;;;;4871989;29;20088;-64
2022/07/06 13:25:03;;;;;;;5.95;1.60;;;21.50;92.00;;;;;;4884288;29;20067;-65
2022/07/06 13:27:28;;;;;;;5.00;1.42;;;21.40;92.20;;;;;;4893826;29;20477;-65
2022/07/06 13:29:54;;;;;;;2.63;0.93;;;21.30;92.40;;;;;;4873392;29;20064;-65
2022/07/06 13:32:21;;;;;;;4.70;1.17;;;21.40;92.50;;;;;;4870998;29;20076;-65
2022/07/06 13:34:47;;;;;;;2.55;1.20;;;21.30;92.10;;;;;;4873901;29;20044;-65
2022/07/06 13:37:13;;;;;;;2.67;1.00;;;21.20;93.20;;;;;;4871678;29;20096;-65
2022/07/06 13:39:38;;;;;;;2.58;1.20;;;21.30;92.70;;;;;;4880747;29;20048;-64
2022/07/06 13:42:05;;;;;;;2.78;0.82;;;21.90;93.50;;;;;;4880391;29;20504;-65
2022/07/06 13:44:30;;;;;;;1.60;0.90;;;21.90;92.60;;;;;;4882724;29;20051;-65
2022/07/06 13:46:56;;;;;;;4.95;1.17;;;21.40;92.60;;;;;;4875084;29;20040;-65
2022/07/06 13:49:22;;;;;;;1.65;1.05;;;21.00;92.80;;;;;;4880535;29;20048;-64
2022/07/06 13:51:47;;;;;;;3.22;1.10;;;20.70;93.00;;;;;;4881145;29;20040;-64
2022/07/06 13:54:13;;;;;;;2.90;1.15;;;20.70;94.20;;;;;;4879934;29;20506;-64
2022/07/06 13:56:39;;;;;;;3.47;1.13;;;20.70;94.50;;;;;;4877609;29;20133;-64
2022/07/06 13:59:06;;;;;;;3.35;1.20;;;20.60;94.40;;;;;;4880571;29;20168;-65
2022/07/06 14:01:32;;;;;;;2.90;1.40;;;20.70;94.00;;;;;;4876059;29;20457;-65
2022/07/06 14:03:58;;;;;;;2.72;1.10;;;20.80;94.60;;;;;;4879378;29;20041;-65
2022/07/06 14:06:23;;;;;;;2.47;0.93;;;20.80;93.40;;;;;;4880272;29;20039;-65
2022/07/06 14:08:49;;;;;;;1.98;1.05;;;20.90;93.20;;;;;;4884617;29;20524;-65
2022/07/06 14:11:15;;;;;;;4.47;1.25;;;20.80;93.00;;;;;;4872320;29;20048;-65
2022/07/06 14:13:41;;;;;;;2.75;1.10;;;20.90;93.10;;;;;;4874303;29;20045;-64
2022/07/06 14:16:07;;;;;;;2.33;1.20;;;20.80;92.20;;;;;;4874562;29;20506;-64
2022/07/06 14:18:33;;;;;;;2.08;1.00;;;20.70;92.00;;;;;;4880023;29;20047;-64
2022/07/06 14:21:00;;;;;;;12.20;5.43;;;20.60;91.40;;;;;;4870924;29;20029;-64
2022/07/06 14:23:26;;;;;;;3.08;1.23;;;20.50;91.20;;;;;;4874002;29;20052;-63
2022/07/06 14:25:52;;;;;;;3.30;1.05;;;20.50;91.10;;;;;;4879903;29;20123;-64
2022/07/06 14:28:18;;;;;;;3.22;1.00;;;20.30;91.30;;;;;;4875326;29;20045;-64
2022/07/06 14:30:45;;;;;;;9.75;1.40;;;20.20;91.40;;;;;;4872920;29;20060;-64
2022/07/06 14:33:12;;;;;;;2.13;1.15;;;20.20;91.20;;;;;;4863441;29;20146;-64
2022/07/06 14:35:40;;;;;;;3.08;1.08;;;20.10;90.20;;;;;;4873328;29;20552;-65
2022/07/06 14:38:07;;;;;;;6.47;1.20;;;20.10;90.80;;;;;;4884284;29;20592;-65
2022/07/06 14:40:33;;;;;;;4.85;1.27;;;20.10;91.10;;;;;;4872966;29;20108;-64
2022/07/06 14:42:59;;;;;;;2.95;1.40;;;20.00;90.80;;;;;;4878186;29;20045;-64
2022/07/06 14:45:26;;;;;;;6.47;1.40;;;19.90;91.30;;;;;;4878126;29;20113;-64
2022/07/06 14:47:51;;;;;;;5.95;1.50;;;19.90;91.20;;;;;;4879888;29;20044;-64
2022/07/06 14:50:18;;;;;;;2.97;1.35;;;19.90;91.60;;;;;;4878151;29;20045;-64
2022/07/06 14:52:44;;;;;;;2.42;1.40;;;19.90;91.80;;;;;;4877196;29;20033;-65
2022/07/06 14:55:09;;;;;;;3.47;1.65;;;20.00;92.20;;;;;;4881157;29;20143;-64